Time;durP1;ratioP1;P1;durP2;ratioP2;P2;SDS_P1;SDS_P2;PMS_P1;PMS_P2;Temp;Humidity;BMP_temperature;BMP_pressure;BME280_temperature;BME280_humidity;BME280_pressure;Samples;Min_cycle;Max_cycle;Signal;HPM_P1;HPM_P2
2023/01/21 00:00:04;;;;;;;;;;;;;;;1.34;58.41;101299.63;5006152;28;7031;-75
2023/01/21 00:02:30;;;;;;;;;;;;;;;1.33;58.90;101300.38;5009338;28;7251;-75
2023/01/21 00:04:55;;;;;;;;;;;;;;;1.34;59.32;101303.06;5021341;28;7206;-75
2023/01/21 00:07:21;;;;;;;;;;;;;;;1.39;59.28;101306.06;5006889;28;6796;-75
2023/01/21 00:09:47;;;;;;;;;;;;;;;1.42;59.56;101303.81;4983510;28;6931;-75
2023/01/21 00:12:13;;;;;;;;;;;;;;;1.49;59.92;101315.41;5015877;28;6795;-75
2023/01/21 00:14:39;;;;;;;;;;;;;;;1.52;59.30;101318.28;4991083;28;8409;-75
2023/01/21 00:17:05;;;;;;;;;;;;;;;1.59;59.70;101324.81;5015927;28;6940;-75
2023/01/21 00:19:31;;;;;;;;;;;;;;;1.61;59.31;101324.25;5012345;28;7488;-75
2023/01/21 00:21:56;;;;;;;;;;;;;;;1.63;59.68;101332.84;5008472;28;6926;-75
2023/01/21 00:24:23;;;;;;;;;;;;;;;1.64;59.21;101328.69;5025883;28;6833;-75
2023/01/21 00:26:49;;;;;;;;;;;;;;;1.65;59.43;101330.50;5009190;28;7272;-75
2023/01/21 00:29:14;;;;;;;;;;;;;;;1.64;58.97;101341.31;4997681;28;6960;-75
2023/01/21 00:31:40;;;;;;;;;;;;;;;1.65;59.03;101345.66;5003521;28;7245;-75
2023/01/21 00:34:06;;;;;;;;;;;;;;;1.65;58.97;101346.53;5007707;28;7366;-75
2023/01/21 00:36:31;;;;;;;;;;;;;;;1.66;59.75;101353.38;4987549;28;6815;-75
2023/01/21 00:38:58;;;;;;;;;;;;;;;1.67;59.17;101357.69;5004526;28;6963;-75
2023/01/21 00:41:25;;;;;;;;;;;;;;;1.71;59.73;101365.59;4988122;28;6787;-75
2023/01/21 00:43:51;;;;;;;;;;;;;;;1.72;59.71;101364.84;4987712;28;6982;-75
2023/01/21 00:46:17;;;;;;;;;;;;;;;1.73;59.37;101375.09;4986391;28;6792;-75
2023/01/21 00:48:44;;;;;;;;;;;;;;;1.73;58.84;101379.25;4989680;28;6991;-75
2023/01/21 00:51:11;;;;;;;;;;;;;;;1.69;59.05;101385.66;5003469;28;7020;-75
2023/01/21 00:53:40;;;;;;;;;;;;;;;1.63;58.91;101391.00;4989501;28;7261;-74
2023/01/21 00:56:12;;;;;;;;;;;;;;;1.58;58.33;101386.22;5004162;28;6969;-74
2023/01/21 00:58:38;;;;;;;;;;;;;;;1.52;58.22;101387.38;4988324;28;7075;-74
2023/01/21 01:01:08;;;;;;;;;;;;;;;1.47;58.52;101396.16;5008060;28;6967;-74
2023/01/21 01:03:35;;;;;;;;;;;;;;;1.42;58.64;101396.41;5009410;28;7139;-74
2023/01/21 01:06:10;;;;;;;;;;;;;;;1.38;58.48;101402.78;4999882;28;7220;-76
2023/01/21 01:08:36;;;;;;;;;;;;;;;1.36;58.69;101424.50;5008394;28;7012;-76
2023/01/21 01:11:03;;;;;;;;;;;;;;;1.33;58.60;101417.47;4990627;28;6977;-76
2023/01/21 01:13:29;;;;;;;;;;;;;;;1.30;58.76;101422.22;5001967;28;7068;-76
2023/01/21 01:15:57;;;;;;;;;;;;;;;1.28;58.69;101427.88;5004868;28;7223;-76
2023/01/21 01:18:25;;;;;;;;;;;;;;;1.27;58.81;101431.13;5026200;28;6965;-76
2023/01/21 01:20:51;;;;;;;;;;;;;;;1.25;58.49;101436.91;5007493;28;6815;-76
2023/01/21 01:23:17;;;;;;;;;;;;;;;1.27;59.12;101433.66;5016610;28;6950;-74
2023/01/21 01:25:43;;;;;;;;;;;;;;;1.29;59.20;101444.81;5008359;28;6819;-75
2023/01/21 01:28:09;;;;;;;;;;;;;;;1.32;59.02;101446.00;5008968;28;7354;-74
2023/01/21 01:30:35;;;;;;;;;;;;;;;1.36;59.37;101447.22;5006682;28;6951;-74
2023/01/21 01:33:01;;;;;;;;;;;;;;;1.39;59.74;101447.53;4991459;28;6955;-74
2023/01/21 01:35:27;;;;;;;;;;;;;;;1.44;59.83;101448.88;5022968;28;7000;-74
2023/01/21 01:37:53;;;;;;;;;;;;;;;1.50;60.09;101453.69;5007134;28;7161;-74
2023/01/21 01:40:19;;;;;;;;;;;;;;;1.55;59.25;101459.19;5021091;28;7062;-74
2023/01/21 01:42:45;;;;;;;;;;;;;;;1.57;59.35;101453.53;5004277;28;6854;-74
2023/01/21 01:45:13;;;;;;;;;;;;;;;1.58;59.03;101456.97;4995478;28;6981;-74
2023/01/21 01:47:59;;;;;;;;;;;;;;;1.59;59.71;101462.16;5012675;28;6983;-74
2023/01/21 01:50:32;;;;;;;;;;;;;;;1.59;59.22;101459.63;4990463;28;7334;-74
2023/01/21 01:53:00;;;;;;;;;;;;;;;1.62;59.58;101469.16;5006007;28;6803;-74
2023/01/21 01:55:35;;;;;;;;;;;;;;;1.63;59.24;101468.41;5007077;28;6796;-74
2023/01/21 01:58:07;;;;;;;;;;;;;;;1.63;59.75;101476.00;5007755;28;7022;-74
2023/01/21 02:00:33;;;;;;;;;;;;;;;1.63;59.82;101473.47;5006389;28;7017;-74
2023/01/21 02:05:46;;;;;;;;;;;;;;;1.59;59.55;101473.91;5011714;28;6804;-74
2023/01/21 02:08:13;;;;;;;;;;;;;;;1.57;59.53;101468.69;5010066;28;7493;-74
2023/01/21 02:10:39;;;;;;;;;;;;;;;1.58;59.20;101474.66;5028808;28;7214;-74
2023/01/21 02:13:05;;;;;;;;;;;;;;;1.57;59.55;101477.94;5009411;28;6998;-73
2023/01/21 02:16:24;;;;;;;;;;;;;;;1.57;59.69;101480.47;5010786;28;6788;-74
2023/01/21 02:19:12;;;;;;;;;;;;;;;1.53;59.75;101482.66;4986086;28;6973;-74
2023/01/21 02:22:17;;;;;;;;;;;;;;;1.52;59.38;101495.16;4997192;28;7003;-74
2023/01/21 02:25:19;;;;;;;;;;;;;;;1.49;59.59;101493.19;5029136;28;6978;-74
2023/01/21 02:28:19;;;;;;;;;;;;;;;1.48;59.42;101498.09;5007943;28;7008;-74
2023/01/21 02:31:12;;;;;;;;;;;;;;;1.45;59.24;101500.31;5009593;28;7169;-74
2023/01/21 02:33:53;;;;;;;;;;;;;;;1.39;59.44;101498.06;5010635;28;7266;-74
2023/01/21 02:36:48;;;;;;;;;;;;;;;1.36;59.02;101505.34;5027028;28;6956;-74
2023/01/21 02:39:33;;;;;;;;;;;;;;;1.29;58.90;101515.53;5018897;28;7336;-74
2023/01/21 02:42:26;;;;;;;;;;;;;;;1.21;58.81;101520.69;5010514;28;6797;-74
2023/01/21 02:45:33;;;;;;;;;;;;;;;1.11;58.87;101520.47;5026102;28;6815;-74
2023/01/21 02:48:07;;;;;;;;;;;;;;;1.05;59.16;101524.88;5005102;28;7244;-74
2023/01/21 02:50:42;;;;;;;;;;;;;;;1.02;59.25;101524.56;4994737;28;7008;-74
2023/01/21 02:53:26;;;;;;;;;;;;;;;1.01;59.08;101535.41;5011099;28;7306;-74
2023/01/21 02:55:53;;;;;;;;;;;;;;;1.00;59.00;101539.53;5025248;28;6828;-74
2023/01/21 02:58:28;;;;;;;;;;;;;;;0.98;59.03;101543.53;4993654;28;7235;-74
2023/01/21 03:01:08;;;;;;;;;;;;;;;0.96;59.35;101548.41;5006892;28;7226;-74
2023/01/21 03:04:24;;;;;;;;;;;;;;;0.95;59.00;101548.28;5027646;28;6927;-74
2023/01/21 03:07:32;;;;;;;;;;;;;;;0.91;59.02;101551.19;5008918;28;7423;-74
2023/01/21 03:10:13;;;;;;;;;;;;;;;0.88;59.04;101558.44;5009597;28;7343;-74
2023/01/21 03:13:05;;;;;;;;;;;;;;;0.86;59.19;101563.31;5012771;28;7187;-74
2023/01/21 03:18:36;;;;;;;;;;;;;;;0.81;59.27;101560.31;5025865;28;6800;-74
2023/01/21 03:21:09;;;;;;;;;;;;;;;0.83;59.04;101568.06;5026740;28;7005;-74
2023/01/21 03:23:40;;;;;;;;;;;;;;;0.85;59.49;101569.13;5010462;28;7030;-75
2023/01/21 03:26:12;;;;;;;;;;;;;;;0.88;59.50;101571.97;5010031;28;7272;-75
2023/01/21 03:28:46;;;;;;;;;;;;;;;0.93;59.36;101575.88;4990335;28;7198;-74
2023/01/21 03:31:32;;;;;;;;;;;;;;;0.94;59.20;101574.25;5022274;28;6975;-75
2023/01/21 03:34:05;;;;;;;;;;;;;;;0.96;60.13;101578.72;4989975;28;6975;-75
2023/01/21 03:36:59;;;;;;;;;;;;;;;0.99;59.63;101587.38;5002256;28;6804;-74
2023/01/21 03:40:02;;;;;;;;;;;;;;;0.96;59.44;101586.28;4988776;28;6978;-74
2023/01/21 03:42:28;;;;;;;;;;;;;;;0.94;59.59;101590.28;5023739;28;6824;-75
2023/01/21 03:44:54;;;;;;;;;;;;;;;0.93;59.33;101587.63;5005942;28;7100;-74
2023/01/21 03:47:51;;;;;;;;;;;;;;;0.96;59.32;101595.50;5006346;28;7168;-75
2023/01/21 03:50:28;;;;;;;;;;;;;;;0.95;59.76;101592.06;5023700;28;6815;-74
2023/01/21 03:52:54;;;;;;;;;;;;;;;0.99;59.85;101600.00;5003346;28;7310;-74
2023/01/21 03:55:20;;;;;;;;;;;;;;;1.00;59.69;101595.09;5005246;28;7063;-74
2023/01/21 03:57:46;;;;;;;;;;;;;;;1.01;60.14;101599.41;5004700;28;6970;-74
2023/01/21 04:00:12;;;;;;;;;;;;;;;1.04;59.77;101587.13;5001508;28;7902;-75
2023/01/21 04:02:38;;;;;;;;;;;;;;;1.05;60.13;101595.56;5022503;28;7786;-75
2023/01/21 04:05:05;;;;;;;;;;;;;;;1.07;59.72;101599.19;5005852;28;7457;-74
2023/01/21 04:07:30;;;;;;;;;;;;;;;1.09;59.79;101603.63;5003429;28;6872;-74
2023/01/21 04:09:56;;;;;;;;;;;;;;;1.08;59.81;101603.50;4991912;28;7245;-74
2023/01/21 04:12:22;;;;;;;;;;;;;;;1.06;59.59;101605.84;5005632;28;6970;-75
2023/01/21 04:14:47;;;;;;;;;;;;;;;1.04;59.21;101608.94;5002859;28;6772;-75
2023/01/21 04:17:13;;;;;;;;;;;;;;;1.00;59.35;101610.22;5005398;28;7037;-75
2023/01/21 04:19:39;;;;;;;;;;;;;;;0.96;59.36;101610.66;5002936;28;7175;-75
2023/01/21 04:22:04;;;;;;;;;;;;;;;0.91;59.46;101612.69;5003014;28;6760;-75
2023/01/21 04:24:30;;;;;;;;;;;;;;;0.87;59.11;101610.59;5021467;28;7140;-75
2023/01/21 04:26:55;;;;;;;;;;;;;;;0.83;59.07;101618.53;5005608;28;6771;-74
2023/01/21 04:29:21;;;;;;;;;;;;;;;0.80;59.45;101623.28;5003074;28;7524;-75
2023/01/21 04:31:47;;;;;;;;;;;;;;;0.79;59.42;101624.00;4988335;28;8530;-75
2023/01/21 04:34:13;;;;;;;;;;;;;;;0.78;59.39;101627.28;5003742;28;6930;-75
2023/01/21 04:36:38;;;;;;;;;;;;;;;0.79;59.51;101631.59;5003607;28;7389;-74
2023/01/21 04:39:04;;;;;;;;;;;;;;;0.78;59.53;101632.31;4996948;28;6963;-75
2023/01/21 04:41:30;;;;;;;;;;;;;;;0.79;59.51;101626.53;5020589;28;7110;-74
2023/01/21 04:43:56;;;;;;;;;;;;;;;0.81;59.59;101637.69;5019811;28;7030;-74
2023/01/21 04:46:21;;;;;;;;;;;;;;;0.83;59.76;101638.75;4999006;28;6952;-75
2023/01/21 04:48:47;;;;;;;;;;;;;;;0.86;59.69;101639.06;5014362;28;6780;-74
2023/01/21 04:51:13;;;;;;;;;;;;;;;0.90;59.51;101643.72;5006127;28;6784;-74
2023/01/21 04:53:38;;;;;;;;;;;;;;;0.93;59.89;101645.69;5005438;28;6804;-75
2023/01/21 04:56:04;;;;;;;;;;;;;;;0.93;59.81;101641.50;5004940;28;7003;-74
2023/01/21 04:58:30;;;;;;;;;;;;;;;0.93;59.46;101651.63;5000364;28;6851;-75
2023/01/21 05:00:56;;;;;;;;;;;;;;;0.94;59.57;101658.44;5003372;28;7757;-75
2023/01/21 05:03:21;;;;;;;;;;;;;;;0.93;59.65;101651.63;5020326;28;6844;-74
2023/01/21 05:05:47;;;;;;;;;;;;;;;0.94;59.63;101647.47;5002625;28;7185;-75
2023/01/21 05:08:13;;;;;;;;;;;;;;;0.92;59.63;101657.41;5001969;28;7013;-75
2023/01/21 05:10:39;;;;;;;;;;;;;;;0.90;59.24;101652.91;4998709;28;7592;-74
2023/01/21 05:13:04;;;;;;;;;;;;;;;0.87;59.36;101650.97;5005925;28;7268;-75
2023/01/21 05:15:30;;;;;;;;;;;;;;;0.85;59.25;101660.00;5000286;28;6779;-75
2023/01/21 05:17:56;;;;;;;;;;;;;;;0.81;59.45;101658.75;5003500;28;7756;-75
2023/01/21 05:20:23;;;;;;;;;;;;;;;0.80;59.02;101654.44;5005975;28;6944;-74
2023/01/21 05:22:49;;;;;;;;;;;;;;;0.79;59.30;101664.41;5001586;28;7173;-74
2023/01/21 05:25:15;;;;;;;;;;;;;;;0.78;59.14;101666.00;5020628;28;6986;-75
2023/01/21 05:27:41;;;;;;;;;;;;;;;0.76;59.15;101670.00;5007053;28;7034;-74
2023/01/21 05:30:08;;;;;;;;;;;;;;;0.75;59.31;101669.84;5005569;28;6896;-75
2023/01/21 05:32:35;;;;;;;;;;;;;;;0.75;59.52;101669.84;5011617;28;6970;-75
2023/01/21 05:35:03;;;;;;;;;;;;;;;0.75;59.24;101674.88;5003826;28;6844;-75
2023/01/21 05:37:29;;;;;;;;;;;;;;;0.75;59.38;101674.88;5006043;28;7400;-74
2023/01/21 05:39:54;;;;;;;;;;;;;;;0.74;59.32;101680.66;4995055;28;7447;-76
2023/01/21 05:42:20;;;;;;;;;;;;;;;0.73;59.61;101683.91;4991371;28;6998;-77
2023/01/21 05:44:46;;;;;;;;;;;;;;;0.72;59.61;101679.59;4993118;28;7013;-76
2023/01/21 05:47:11;;;;;;;;;;;;;;;0.71;59.39;101678.69;5026575;28;6851;-77
2023/01/21 05:49:37;;;;;;;;;;;;;;;0.72;59.73;101687.19;5021880;28;6776;-76
2023/01/21 05:52:03;;;;;;;;;;;;;;;0.71;59.55;101682.88;5015774;28;7261;-77
2023/01/21 05:54:28;;;;;;;;;;;;;;;0.72;59.44;101683.00;5007964;28;7125;-76
2023/01/21 05:56:54;;;;;;;;;;;;;;;0.73;59.53;101691.50;5008937;28;6767;-77
2023/01/21 05:59:20;;;;;;;;;;;;;;;0.71;59.43;101685.38;5007787;28;6928;-77
2023/01/21 06:01:45;;;;;;;;;;;;;;;0.71;59.47;101693.84;4991387;28;6882;-76
2023/01/21 06:04:11;;;;;;;;;;;;;;;0.71;59.21;101698.00;5005642;28;6776;-76
2023/01/21 06:06:36;;;;;;;;;;;;;;;0.69;59.31;101701.25;5001145;28;7282;-76
2023/01/21 06:09:02;;;;;;;;;;;;;;;0.69;59.17;101713.88;5009864;28;7169;-75
2023/01/21 06:11:28;;;;;;;;;;;;;;;0.69;59.17;101715.50;5007375;28;8025;-74
2023/01/21 06:13:54;;;;;;;;;;;;;;;0.68;59.44;101717.16;5027890;28;6772;-74
2023/01/21 06:16:19;;;;;;;;;;;;;;;0.71;59.49;101720.72;5006005;28;6772;-74
2023/01/21 06:18:45;;;;;;;;;;;;;;;0.70;59.24;101729.91;5019200;28;6772;-74
2023/01/21 06:21:11;;;;;;;;;;;;;;;0.68;59.27;101734.81;5006453;28;7140;-74
2023/01/21 06:23:36;;;;;;;;;;;;;;;0.68;59.50;101738.94;5024480;28;6780;-75
2023/01/21 06:26:02;;;;;;;;;;;;;;;0.66;59.29;101743.81;5007204;28;6910;-74
2023/01/21 06:28:29;;;;;;;;;;;;;;;0.64;59.03;101755.38;5024801;28;6788;-75
2023/01/21 06:30:55;;;;;;;;;;;;;;;0.60;58.56;101748.22;5005739;28;7010;-74
2023/01/21 06:33:21;;;;;;;;;;;;;;;0.48;57.83;101756.94;5005203;28;6838;-74
2023/01/21 06:35:46;;;;;;;;;;;;;;;0.31;57.62;101760.13;5005790;28;6772;-74
2023/01/21 06:38:13;;;;;;;;;;;;;;;0.12;57.12;101755.53;5005520;28;6958;-74
2023/01/21 06:40:38;;;;;;;;;;;;;;;-0.06;57.13;101759.44;5005915;28;6836;-75
2023/01/21 06:43:04;;;;;;;;;;;;;;;-0.21;57.30;101764.53;5017250;28;7391;-76
2023/01/21 06:45:30;;;;;;;;;;;;;;;-0.35;57.02;101769.63;5004668;28;8494;-76
2023/01/21 06:47:55;;;;;;;;;;;;;;;-0.54;56.82;101775.09;5006671;28;7314;-76
2023/01/21 06:50:21;;;;;;;;;;;;;;;-0.70;56.55;101778.34;5005684;28;7253;-76
2023/01/21 06:52:48;;;;;;;;;;;;;;;-0.84;56.79;101783.44;4997985;28;7445;-75
2023/01/21 06:55:15;;;;;;;;;;;;;;;-0.97;57.38;101783.63;5004326;28;6807;-75
2023/01/21 06:57:42;;;;;;;;;;;;;;;-1.09;57.05;101785.59;5004007;28;7156;-76
2023/01/21 07:00:10;;;;;;;;;;;;;;;-1.19;57.05;101792.78;5004296;28;8171;-76
2023/01/21 07:02:36;;;;;;;;;;;;;;;-1.26;57.69;101803.75;5007039;28;11335;-76
2023/01/21 07:05:04;;;;;;;;;;;;;;;-1.31;57.77;101803.22;5007682;28;6939;-76
2023/01/21 07:07:29;;;;;;;;;;;;;;;-1.35;57.27;101808.63;5002629;28;6981;-76
2023/01/21 07:09:55;;;;;;;;;;;;;;;-1.41;57.07;101802.84;5008973;28;7146;-76
2023/01/21 07:12:21;;;;;;;;;;;;;;;-1.45;57.11;101813.25;5007354;28;6772;-76
2023/01/21 07:14:47;;;;;;;;;;;;;;;-1.49;57.95;101821.16;5007156;28;7402;-76
2023/01/21 07:17:13;;;;;;;;;;;;;;;-1.54;57.75;101824.03;5002212;28;6792;-76
2023/01/21 07:19:38;;;;;;;;;;;;;;;-1.58;57.54;101828.50;5005032;28;7032;-76
2023/01/21 07:22:04;;;;;;;;;;;;;;;-1.64;57.41;101835.31;5007219;28;7211;-76
2023/01/21 07:24:30;;;;;;;;;;;;;;;-1.70;57.35;101840.50;5010086;28;6864;-76
2023/01/21 07:26:55;;;;;;;;;;;;;;;-1.77;57.08;101843.91;5023268;28;7122;-76
2023/01/21 07:29:22;;;;;;;;;;;;;;;-1.85;56.70;101844.59;4977124;28;7900;-76
2023/01/21 07:31:48;;;;;;;;;;;;;;;-1.95;56.99;101840.06;5020935;28;7031;-76
2023/01/21 07:34:13;;;;;;;;;;;;;;;-2.02;57.46;101847.59;5004980;28;7022;-76
2023/01/21 07:36:39;;;;;;;;;;;;;;;-2.06;56.81;101861.38;5001166;28;7168;-76
2023/01/21 07:39:05;;;;;;;;;;;;;;;-2.12;56.91;101858.09;5020045;28;7868;-76
2023/01/21 07:41:30;;;;;;;;;;;;;;;-2.16;57.42;101854.31;5002479;28;7094;-76
2023/01/21 07:43:56;;;;;;;;;;;;;;;-2.18;56.95;101854.84;5004007;28;6958;-76
2023/01/21 07:46:22;;;;;;;;;;;;;;;-2.21;57.12;101852.88;5002977;28;7194;-76
2023/01/21 07:48:51;;;;;;;;;;;;;;;-2.21;57.80;101859.50;5011750;28;7287;-76
2023/01/21 07:51:20;;;;;;;;;;;;;;;-2.22;57.48;101870.25;4996953;28;7249;-76
2023/01/21 07:53:46;;;;;;;;;;;;;;;-2.23;57.99;101871.84;5004121;28;6859;-76
2023/01/21 07:56:12;;;;;;;;;;;;;;;-2.24;57.82;101873.50;4987924;28;8367;-76
2023/01/21 07:58:38;;;;;;;;;;;;;;;-2.24;58.01;101872.56;5004830;28;7226;-76
2023/01/21 08:01:06;;;;;;;;;;;;;;;-2.22;58.28;101873.69;5021299;28;6816;-76
2023/01/21 08:03:34;;;;;;;;;;;;;;;-2.20;58.00;101877.28;4982932;28;6982;-76
2023/01/21 08:05:59;;;;;;;;;;;;;;;-2.16;57.85;101881.94;5002131;28;6799;-76
2023/01/21 08:08:25;;;;;;;;;;;;;;;-2.11;57.72;101890.97;4987364;28;7214;-76
2023/01/21 08:10:53;;;;;;;;;;;;;;;-2.05;57.68;101892.41;5007863;28;7233;-76
2023/01/21 08:13:19;;;;;;;;;;;;;;;-2.03;58.27;101899.44;5009070;28;6943;-76
2023/01/21 08:15:53;;;;;;;;;;;;;;;-2.04;57.78;101889.19;5026163;28;6855;-76
2023/01/21 08:18:21;;;;;;;;;;;;;;;-2.07;57.50;101897.28;5012001;28;7506;-76
2023/01/21 08:20:52;;;;;;;;;;;;;;;-2.10;57.64;101896.88;5009341;28;6971;-76
2023/01/21 08:23:17;;;;;;;;;;;;;;;-2.12;57.75;101900.81;5009325;28;6875;-76
2023/01/21 08:25:43;;;;;;;;;;;;;;;-2.13;58.20;101907.44;5008402;28;6783;-76
2023/01/21 08:28:08;;;;;;;;;;;;;;;-2.10;58.11;101909.44;5026792;28;6772;-76
2023/01/21 08:30:35;;;;;;;;;;;;;;;-2.04;59.07;101914.31;5008223;28;6830;-76
2023/01/21 08:33:00;;;;;;;;;;;;;;;-1.97;58.41;101915.28;5005167;28;6792;-76
2023/01/21 08:35:26;;;;;;;;;;;;;;;-1.88;58.74;101910.47;5005708;28;7181;-76
2023/01/21 08:37:56;;;;;;;;;;;;;;;-1.78;58.62;101920.03;5025357;28;6788;-76
2023/01/21 08:40:25;;;;;;;;;;;;;;;-1.66;58.93;101922.25;5008308;28;6961;-76
2023/01/21 08:42:51;;;;;;;;;;;;;;;-1.57;58.87;101926.75;5009790;28;8687;-76
2023/01/21 08:45:16;;;;;;;;;;;;;;;-1.45;58.43;101933.97;5008680;28;7175;-76
2023/01/21 08:47:42;;;;;;;;;;;;;;;-1.35;58.79;101931.88;4990811;28;7162;-76
2023/01/21 08:50:11;;;;;;;;;;;;;;;-1.24;58.93;101930.63;5006568;28;6793;-76
2023/01/21 08:52:36;;;;;;;;;;;;;;;-1.15;58.75;101931.75;5007574;28;7105;-76
2023/01/21 08:55:02;;;;;;;;;;;;;;;-1.05;59.06;101941.31;5009448;28;6983;-76
2023/01/21 08:57:27;;;;;;;;;;;;;;;-0.95;58.59;101947.44;5025832;28;6800;-76
2023/01/21 08:59:53;;;;;;;;;;;;;;;-0.87;59.10;101945.09;5026138;28;6820;-76
2023/01/21 09:02:19;;;;;;;;;;;;;;;-0.78;58.78;101942.75;4998197;28;6972;-76
2023/01/21 09:04:45;;;;;;;;;;;;;;;-0.65;59.10;101956.81;5005490;28;7254;-76
2023/01/21 09:07:10;;;;;;;;;;;;;;;-0.55;58.78;101954.66;5015163;28;6882;-76
2023/01/21 09:09:36;;;;;;;;;;;;;;;-0.42;58.87;101957.00;5002071;28;6999;-76
2023/01/21 09:12:05;;;;;;;;;;;;;;;-0.29;59.18;101955.19;5012362;28;6876;-76
2023/01/21 09:14:30;;;;;;;;;;;;;;;-0.16;58.83;101956.59;4993103;28;7202;-76
2023/01/21 09:16:56;;;;;;;;;;;;;;;-0.03;58.81;101967.41;5020815;28;7008;-76
2023/01/21 09:19:23;;;;;;;;;;;;;;;0.10;58.77;101967.19;5022427;28;6988;-76
2023/01/21 09:21:54;;;;;;;;;;;;;;;0.22;58.45;101964.28;4991905;28;7450;-76
2023/01/21 09:24:20;;;;;;;;;;;;;;;0.33;58.37;101966.41;5002556;28;6795;-76
2023/01/21 09:26:46;;;;;;;;;;;;;;;0.45;58.58;101971.03;5009218;28;6784;-76
2023/01/21 09:29:11;;;;;;;;;;;;;;;0.55;58.90;101973.88;4992669;28;8515;-76
2023/01/21 09:31:37;;;;;;;;;;;;;;;0.68;58.65;101992.25;5009193;28;7018;-76
2023/01/21 09:34:04;;;;;;;;;;;;;;;0.83;59.05;101998.13;5008928;28;6936;-74
2023/01/21 09:36:33;;;;;;;;;;;;;;;1.00;59.06;101998.22;5010074;28;6868;-74
2023/01/21 09:38:59;;;;;;;;;;;;;;;1.13;59.21;102003.00;5000142;28;7256;-75
2023/01/21 09:41:44;;;;;;;;;;;;;;;1.24;59.28;102002.59;5006616;28;7019;-74
2023/01/21 09:44:42;;;;;;;;;;;;;;;1.35;59.29;102011.31;4979949;28;7166;-77
2023/01/21 09:47:36;;;;;;;;;;;;;;;1.40;59.00;102010.22;5015079;28;6848;-76
2023/01/21 09:50:05;;;;;;;;;;;;;;;1.45;58.34;102023.38;5013228;28;6946;-76
2023/01/21 09:53:03;;;;;;;;;;;;;;;1.51;58.40;102019.00;5026507;28;6894;-76
2023/01/21 09:55:40;;;;;;;;;;;;;;;1.61;58.61;102026.88;5010379;28;6966;-76
2023/01/21 09:58:30;;;;;;;;;;;;;;;1.72;58.91;102030.56;4997848;28;8116;-76
2023/01/21 10:01:19;;;;;;;;;;;;;;;1.86;59.14;102038.78;5026460;28;6816;-74
2023/01/21 10:04:16;;;;;;;;;;;;;;;2.04;59.19;102035.72;5011290;28;7086;-75
2023/01/21 10:06:57;;;;;;;;;;;;;;;2.27;59.79;102034.78;5012124;28;6841;-74
2023/01/21 10:09:56;;;;;;;;;;;;;;;2.51;58.97;102040.66;4999185;28;6997;-74
2023/01/21 10:13:12;;;;;;;;;;;;;;;2.75;59.21;102039.88;5011512;28;7179;-74
2023/01/21 10:16:10;;;;;;;;;;;;;;;2.95;59.46;102037.63;5010000;28;7006;-74
2023/01/21 10:18:41;;;;;;;;;;;;;;;3.08;59.77;102035.63;5012239;28;7010;-74
2023/01/21 10:21:30;;;;;;;;;;;;;;;3.22;59.44;102036.19;5010893;28;7007;-74
2023/01/21 10:24:13;;;;;;;;;;;;;;;3.35;58.75;102036.69;5024554;28;7198;-74
2023/01/21 10:26:43;;;;;;;;;;;;;;;3.47;59.37;102030.34;5010498;28;6796;-74
2023/01/21 10:29:17;;;;;;;;;;;;;;;3.55;59.01;102027.72;5002904;28;6812;-74
2023/01/21 10:31:53;;;;;;;;;;;;;;;3.63;58.75;102034.47;5005137;28;6812;-74
2023/01/21 10:34:19;;;;;;;;;;;;;;;3.69;59.25;102029.13;5008388;28;6880;-74
2023/01/21 10:37:16;;;;;;;;;;;;;;;3.71;59.17;102023.47;5007616;28;6985;-75
2023/01/21 10:40:09;;;;;;;;;;;;;;;3.75;58.66;102032.28;5006115;28;7059;-74
2023/01/21 10:43:06;;;;;;;;;;;;;;;3.79;58.79;102030.97;5013635;28;6960;-74
2023/01/21 10:45:54;;;;;;;;;;;;;;;3.89;58.75;102037.13;5009194;28;7226;-75
2023/01/21 10:49:30;;;;;;;;;;;;;;;4.02;59.04;102023.16;4993718;28;7050;-74
2023/01/21 10:52:14;;;;;;;;;;;;;;;4.11;59.05;102029.16;5008822;28;6849;-76
2023/01/21 10:55:07;;;;;;;;;;;;;;;4.25;58.94;102032.16;5000818;28;7016;-74
2023/01/21 10:58:03;;;;;;;;;;;;;;;4.34;59.48;102033.06;5025840;28;6863;-75
2023/01/21 11:00:39;;;;;;;;;;;;;;;4.43;58.84;102031.44;5006572;28;8095;-74
2023/01/21 11:03:28;;;;;;;;;;;;;;;4.48;58.82;102026.81;5007831;28;7349;-74
2023/01/21 11:05:54;;;;;;;;;;;;;;;4.52;59.18;102030.56;5012623;28;7382;-74
2023/01/21 11:08:22;;;;;;;;;;;;;;;4.56;58.87;102025.03;5022909;28;6788;-74
2023/01/21 11:10:54;;;;;;;;;;;;;;;4.57;58.92;102022.66;5006959;28;6982;-74
2023/01/21 11:13:21;;;;;;;;;;;;;;;4.60;58.44;102024.59;4998166;28;7863;-75
2023/01/21 11:15:56;;;;;;;;;;;;;;;4.65;59.19;102025.94;5011542;28;8082;-75
2023/01/21 11:18:37;;;;;;;;;;;;;;;4.67;58.87;102026.97;5008416;28;6800;-75
2023/01/21 11:21:23;;;;;;;;;;;;;;;4.71;58.93;102025.63;5008077;28;8098;-74
2023/01/21 11:24:23;;;;;;;;;;;;;;;4.79;58.25;102026.41;5024728;28;8439;-75
2023/01/21 11:26:55;;;;;;;;;;;;;;;4.84;58.84;102028.66;5010931;28;8051;-74
2023/01/21 11:29:23;;;;;;;;;;;;;;;4.86;58.53;102029.69;5005516;28;7011;-74
2023/01/21 11:32:04;;;;;;;;;;;;;;;4.91;58.80;102034.31;5007654;28;8751;-75
2023/01/21 11:34:30;;;;;;;;;;;;;;;4.95;58.67;102033.88;5006235;28;6804;-74
2023/01/21 11:37:07;;;;;;;;;;;;;;;5.01;58.51;102037.00;5025391;28;6950;-74
2023/01/21 11:39:39;;;;;;;;;;;;;;;5.05;58.18;102039.09;4999534;28;6994;-74
2023/01/21 11:42:16;;;;;;;;;;;;;;;5.09;58.07;102035.22;5007684;28;7155;-74
2023/01/21 11:44:57;;;;;;;;;;;;;;;5.10;58.02;102035.34;5000334;28;8522;-75
2023/01/21 11:47:48;;;;;;;;;;;;;;;5.12;57.53;102043.13;5020639;28;8525;-75
2023/01/21 11:50:24;;;;;;;;;;;;;;;5.12;57.74;102044.03;5007338;28;6864;-75
2023/01/21 11:53:05;;;;;;;;;;;;;;;5.12;57.57;102044.03;5003156;28;8482;-75
2023/01/21 11:55:44;;;;;;;;;;;;;;;5.12;57.43;102046.56;5024035;28;7007;-75
2023/01/21 11:58:39;;;;;;;;;;;;;;;5.11;57.62;102037.13;5006763;28;6955;-75
2023/01/21 12:01:17;;;;;;;;;;;;;;;5.11;57.65;102033.69;5023930;28;7430;-74
2023/01/21 12:03:59;;;;;;;;;;;;;;;5.14;57.60;102036.53;4991678;28;7258;-74
2023/01/21 12:06:31;;;;;;;;;;;;;;;5.18;57.17;102040.28;5008644;28;6792;-75
2023/01/21 12:09:06;;;;;;;;;;;;;;;5.22;57.15;102038.16;5007790;28;7255;-74
2023/01/21 12:11:32;;;;;;;;;;;;;;;5.24;57.27;102040.88;5006180;28;6963;-75
2023/01/21 12:14:29;;;;;;;;;;;;;;;5.24;56.80;102041.75;5010359;28;6771;-74
2023/01/21 12:17:13;;;;;;;;;;;;;;;5.24;56.74;102040.88;5009240;28;6811;-74
2023/01/21 12:20:21;;;;;;;;;;;;;;;5.23;56.99;102039.97;5022299;28;6773;-75
2023/01/21 12:23:15;;;;;;;;;;;;;;;5.22;56.90;102043.25;5007677;28;6800;-75
2023/01/21 12:25:57;;;;;;;;;;;;;;;5.20;56.88;102043.84;5025122;28;7125;-74
2023/01/21 12:28:54;;;;;;;;;;;;;;;5.22;56.70;102039.84;5008186;28;6800;-75
2023/01/21 12:31:36;;;;;;;;;;;;;;;5.23;56.67;102041.63;5015640;28;7408;-74
2023/01/21 12:34:23;;;;;;;;;;;;;;;5.26;56.96;102034.28;5004049;28;6800;-75
2023/01/21 12:36:59;;;;;;;;;;;;;;;5.30;56.68;102038.00;5001734;28;7111;-75
2023/01/21 12:39:32;;;;;;;;;;;;;;;5.34;56.78;102033.38;5003806;28;6958;-75
2023/01/21 12:42:21;;;;;;;;;;;;;;;5.37;56.42;102037.84;5004625;28;6800;-74
2023/01/21 12:45:08;;;;;;;;;;;;;;;5.39;56.48;102047.41;5008764;28;7476;-74
2023/01/21 12:47:45;;;;;;;;;;;;;;;5.40;56.47;102039.03;5005361;28;7234;-74
2023/01/21 12:50:39;;;;;;;;;;;;;;;5.46;56.60;102032.75;5025025;28;6808;-75
2023/01/21 12:53:08;;;;;;;;;;;;;;;5.53;56.46;102025.81;5004073;28;7256;-74
2023/01/21 12:56:18;;;;;;;;;;;;;;;5.63;56.13;102027.59;5025460;28;7115;-74
2023/01/21 12:58:58;;;;;;;;;;;;;;;5.73;56.34;102023.38;5016157;28;6984;-74
2023/01/21 13:01:54;;;;;;;;;;;;;;;5.82;56.45;102024.25;5024170;28;7020;-75
2023/01/21 13:05:00;;;;;;;;;;;;;;;5.96;56.40;102022.97;4979978;28;6867;-75
2023/01/21 13:07:55;;;;;;;;;;;;;;;6.07;55.89;102021.44;5006160;28;7009;-75
2023/01/21 13:10:38;;;;;;;;;;;;;;;6.15;56.01;102023.03;5007320;28;6823;-74
2023/01/21 13:13:40;;;;;;;;;;;;;;;6.19;55.37;102016.59;5022356;28;6883;-75
2023/01/21 13:16:09;;;;;;;;;;;;;;;6.20;55.62;102011.66;5008313;28;6900;-75
2023/01/21 13:18:40;;;;;;;;;;;;;;;6.24;55.50;102016.25;5003272;28;6927;-75
2023/01/21 13:21:30;;;;;;;;;;;;;;;6.27;54.75;102014.72;5019449;28;6976;-75
2023/01/21 13:24:53;;;;;;;;;;;;;;;6.31;55.06;102010.06;5007410;28;6966;-75
2023/01/21 13:27:49;;;;;;;;;;;;;;;6.34;54.74;102012.91;5002617;28;6998;-75
2023/01/21 13:30:35;;;;;;;;;;;;;;;6.36;54.87;102013.94;5014848;28;6820;-75
2023/01/21 13:33:23;;;;;;;;;;;;;;;6.38;54.64;102014.09;5023131;28;6799;-75